createdAt,value
2023-06-17T00:02:16.550Z,62.21
2023-06-17T00:04:45.835Z,62.96
2023-06-17T00:07:15.569Z,65.85
2023-06-17T00:09:45.452Z,66.36
2023-06-17T00:12:14.069Z,64.51
2023-06-17T00:14:43.236Z,62.24
2023-06-17T00:17:12.245Z,60.55
2023-06-17T00:19:41.363Z,60.46
2023-06-17T00:22:10.925Z,62.41
2023-06-17T00:24:40.689Z,64.57
2023-06-17T00:27:09.164Z,63.78
2023-06-17T00:29:37.967Z,62.95
2023-06-17T00:32:07.224Z,61.56
2023-06-17T00:34:35.556Z,61.31
2023-06-17T00:37:04.293Z,61.42
2023-06-17T00:39:32.697Z,64.34
2023-06-17T00:42:03.434Z,66.48
2023-06-17T00:44:31.830Z,68.59
2023-06-17T00:47:00.524Z,69.41
2023-06-17T00:49:37.504Z,69.42
2023-06-17T00:52:23.934Z,69.17
2023-06-17T00:54:57.235Z,68.37
2023-06-17T00:57:28.902Z,68.29
2023-06-17T00:59:57.501Z,68.37
2023-06-17T01:02:27.083Z,68.42
2023-06-17T01:04:56.929Z,66.62
2023-06-17T01:07:39.003Z,65.51
2023-06-17T01:10:14.612Z,65.90
2023-06-17T01:12:45.463Z,68.10
2023-06-17T01:15:17.253Z,69.05
2023-06-17T01:17:47.280Z,69.33
2023-06-17T01:20:17.798Z,69.47
2023-06-17T01:22:47.677Z,69.25
2023-06-17T01:25:17.480Z,68.41
2023-06-17T01:27:47.302Z,69.10
2023-06-17T01:30:16.300Z,70.79
2023-06-17T01:32:45.180Z,70.70
2023-06-17T01:35:17.107Z,70.54
2023-06-17T01:37:50.590Z,71.06
2023-06-17T01:40:24.201Z,71.16
2023-06-17T01:42:55.058Z,70.97
2023-06-17T01:45:25.760Z,71.58
2023-06-17T01:47:54.430Z,72.31
2023-06-17T01:50:23.229Z,72.65
2023-06-17T01:52:51.813Z,73.03
2023-06-17T01:55:21.867Z,72.56
2023-06-17T01:57:50.299Z,71.88
2023-06-17T02:00:19.767Z,72.13
2023-06-17T02:02:54.341Z,73.36
2023-06-17T02:05:25.576Z,74.07
2023-06-17T02:07:54.789Z,74.70
2023-06-17T02:10:24.539Z,74.54
2023-06-17T02:12:52.888Z,73.57
2023-06-17T02:15:21.711Z,72.84
2023-06-17T02:17:53.057Z,72.38
2023-06-17T02:20:22.341Z,71.77
2023-06-17T02:22:50.836Z,72.10
2023-06-17T02:25:19.216Z,72.16
2023-06-17T02:27:49.592Z,71.97
2023-06-17T02:30:18.285Z,72.75
2023-06-17T02:32:46.857Z,73.37
2023-06-17T02:35:15.266Z,73.97
2023-06-17T02:37:43.929Z,73.31
2023-06-17T02:40:13.165Z,70.37
2023-06-17T02:42:41.866Z,68.98
2023-06-17T02:45:13.859Z,68.87
2023-06-17T02:47:44.013Z,69.03
2023-06-17T02:50:12.717Z,68.77
2023-06-17T02:52:41.323Z,69.84
2023-06-17T02:55:10.820Z,71.47
2023-06-17T02:57:39.255Z,72.89
2023-06-17T03:00:11.699Z,74.28
2023-06-17T03:02:42.065Z,75.70
2023-06-17T03:05:10.811Z,75.65
2023-06-17T03:07:41.425Z,76.35
2023-06-17T03:10:12.320Z,76.07
2023-06-17T03:12:47.065Z,75.74
2023-06-17T03:15:18.581Z,75.98
2023-06-17T03:17:48.949Z,74.89
2023-06-17T03:20:17.531Z,72.40
2023-06-17T03:22:46.232Z,72.14
2023-06-17T03:25:14.874Z,73.85
2023-06-17T03:27:43.178Z,75.25
2023-06-17T03:30:13.232Z,73.07
2023-06-17T03:32:41.695Z,72.09
2023-06-17T03:35:12.006Z,73.44
2023-06-17T03:37:40.379Z,74.48
2023-06-17T03:40:11.265Z,76.03
2023-06-17T03:42:41.154Z,75.16
2023-06-17T03:45:11.678Z,72.66
2023-06-17T03:47:40.141Z,71.80
2023-06-17T03:50:11.687Z,70.90
2023-06-17T03:52:40.407Z,70.39
2023-06-17T03:55:09.992Z,69.87
2023-06-17T03:57:38.863Z,69.41
2023-06-17T04:00:11.578Z,70.25
2023-06-17T04:02:48.367Z,73.47
2023-06-17T04:05:34.578Z,73.95
2023-06-17T04:08:05.107Z,74.08
2023-06-17T04:10:35.733Z,74.05
2023-06-17T04:13:04.193Z,73.67
2023-06-17T04:15:32.637Z,73.60
2023-06-17T04:18:03.286Z,74.02
2023-06-17T04:20:35.954Z,72.57
2023-06-17T04:23:04.680Z,72.51
2023-06-17T04:25:33.682Z,72.50
2023-06-17T04:28:03.458Z,72.03
2023-06-17T04:30:36.187Z,70.90
2023-06-17T04:33:04.805Z,70.94
2023-06-17T04:35:35.326Z,72.37
2023-06-17T04:38:04.609Z,73.46
2023-06-17T04:40:33.782Z,74.16
2023-06-17T04:43:03.381Z,74.24
2023-06-17T04:45:34.669Z,73.14
2023-06-17T04:48:07.126Z,72.43
2023-06-17T04:50:37.538Z,72.57
2023-06-17T04:53:05.958Z,72.60
2023-06-17T04:55:39.404Z,73.14
2023-06-17T04:58:10.970Z,72.21
2023-06-17T05:01:02.322Z,71.25
2023-06-17T05:03:32.679Z,72.19
2023-06-17T05:06:02.534Z,72.20
2023-06-17T05:08:32.461Z,73.25
2023-06-17T05:11:01.652Z,72.70
2023-06-17T05:13:31.159Z,70.60
2023-06-17T05:16:01.933Z,69.40
2023-06-17T05:18:32.290Z,70.02
2023-06-17T05:21:04.957Z,69.61
2023-06-17T05:23:33.394Z,68.86
2023-06-17T05:26:01.822Z,69.13
2023-06-17T05:28:30.701Z,68.81
2023-06-17T05:30:59.786Z,69.63
2023-06-17T05:33:28.690Z,70.63
2023-06-17T05:36:01.310Z,70.00
2023-06-17T05:38:32.487Z,70.44
2023-06-17T05:41:00.884Z,70.53
2023-06-17T05:43:31.466Z,71.08
2023-06-17T05:46:01.081Z,70.46
2023-06-17T05:48:29.516Z,70.89
2023-06-17T05:50:57.866Z,71.23
2023-06-17T05:53:26.402Z,70.96
2023-06-17T05:55:56.332Z,70.92
2023-06-17T05:58:25.384Z,71.09
2023-06-17T06:00:59.939Z,70.75
2023-06-17T06:03:28.379Z,70.21
2023-06-17T06:05:56.826Z,70.09
2023-06-17T06:08:25.261Z,69.86
2023-06-17T06:10:55.050Z,69.69
2023-06-17T06:13:24.882Z,69.97
2023-06-17T06:15:53.357Z,69.75
2023-06-17T06:18:21.844Z,70.11
2023-06-17T06:20:50.281Z,69.56
2023-06-17T06:23:19.782Z,69.58
2023-06-17T06:25:49.083Z,70.33
2023-06-17T06:28:19.482Z,69.42
2023-06-17T06:30:48.303Z,67.20
2023-06-17T06:33:17.605Z,68.06
2023-06-17T06:35:45.920Z,67.60
2023-06-17T06:38:19.047Z,66.26
2023-06-17T06:40:47.989Z,66.11
2023-06-17T06:43:18.002Z,60.38
2023-06-17T06:46:03.115Z,60.12
2023-06-17T06:48:31.554Z,58.03
2023-06-17T06:50:59.988Z,55.34
2023-06-17T06:53:28.465Z,54.36
2023-06-17T06:55:57.826Z,53.79
2023-06-17T06:58:28.831Z,49.85
2023-06-17T07:00:57.485Z,50.76
2023-06-17T07:03:26.794Z,49.56
2023-06-17T07:05:55.267Z,52.84
2023-06-17T07:08:23.827Z,50.92
2023-06-17T07:10:52.192Z,48.18
2023-06-17T07:13:20.739Z,48.04
2023-06-17T07:15:52.339Z,49.16
2023-06-17T07:18:21.747Z,47.25
2023-06-17T07:20:50.142Z,47.34
2023-06-17T07:23:20.880Z,46.52
2023-06-17T07:25:50.077Z,45.43
2023-06-17T07:28:19.024Z,44.79
2023-06-17T07:30:47.453Z,44.30
2023-06-17T07:33:17.929Z,43.28
2023-06-17T07:35:46.209Z,44.51
2023-06-17T07:38:15.340Z,43.18
2023-06-17T07:40:46.488Z,41.94
2023-06-17T07:43:15.228Z,43.47
2023-06-17T07:45:43.619Z,42.18
2023-06-17T07:48:12.028Z,44.86
2023-06-17T07:50:42.220Z,43.73
2023-06-17T07:53:10.639Z,44.64
2023-06-17T07:55:40.403Z,44.20
2023-06-17T07:58:08.755Z,44.44
2023-06-17T08:00:37.308Z,45.03
2023-06-17T08:03:06.184Z,45.10
2023-06-17T08:05:34.792Z,44.51
2023-06-17T08:08:04.662Z,44.06
2023-06-17T08:10:33.119Z,44.59
2023-06-17T08:13:01.495Z,46.12
2023-06-17T08:15:30.009Z,44.02
2023-06-17T08:17:58.440Z,42.11
2023-06-17T08:20:26.823Z,42.03
2023-06-17T08:22:55.249Z,42.95
2023-06-17T08:25:24.937Z,43.38
2023-06-17T08:27:53.353Z,42.88
2023-06-17T08:30:22.787Z,42.47
2023-06-17T08:32:51.549Z,41.46
2023-06-17T08:35:19.837Z,41.42
2023-06-17T08:37:48.418Z,42.31
2023-06-17T08:40:17.386Z,40.69
2023-06-17T08:42:48.755Z,41.16
2023-06-17T08:45:17.310Z,41.55
2023-06-17T08:47:45.722Z,40.03
2023-06-17T08:50:15.343Z,40.55
2023-06-17T08:52:45.526Z,40.23
2023-06-17T08:55:14.704Z,38.81
2023-06-17T08:57:46.183Z,39.33
2023-06-17T09:00:15.901Z,39.97
2023-06-17T09:02:46.891Z,39.71
2023-06-17T09:05:15.864Z,38.63
2023-06-17T09:07:44.857Z,38.47
2023-06-17T09:10:17.849Z,38.99
2023-06-17T09:12:47.724Z,38.35
2023-06-17T09:15:20.069Z,39.16
2023-06-17T09:17:49.539Z,40.16
2023-06-17T09:20:19.462Z,41.62
2023-06-17T09:22:49.657Z,39.53
2023-06-17T09:25:19.694Z,40.79
2023-06-17T09:28:05.895Z,40.23
2023-06-17T09:30:43.700Z,39.72
2023-06-17T09:33:20.118Z,39.93
2023-06-17T09:35:49.083Z,39.15
2023-06-17T09:38:19.490Z,38.28
2023-06-17T09:40:50.624Z,39.74
2023-06-17T09:45:58.094Z,41.85
2023-06-17T09:48:31.587Z,39.41
2023-06-17T09:51:01.609Z,39.43
2023-06-17T09:53:31.815Z,39.17
2023-06-17T09:56:01.919Z,38.48
2023-06-17T09:58:33.161Z,38.33
2023-06-17T10:01:07.505Z,37.61
2023-06-17T10:03:38.513Z,37.69
2023-06-17T10:06:11.996Z,37.21
2023-06-17T10:08:44.936Z,36.71
2023-06-17T10:11:15.333Z,36.58
2023-06-17T10:13:52.327Z,36.50
2023-06-17T10:16:23.554Z,37.29
2023-06-17T10:18:54.077Z,37.57
2023-06-17T10:21:23.320Z,38.35
2023-06-17T10:23:53.386Z,38.50
2023-06-17T10:26:23.019Z,38.66
2023-06-17T10:29:07.052Z,37.68
2023-06-17T10:31:40.487Z,37.45
2023-06-17T10:34:16.491Z,37.31
2023-06-17T10:36:50.085Z,36.62
2023-06-17T10:39:18.416Z,39.90
2023-06-17T10:42:01.933Z,37.95
2023-06-17T10:44:45.181Z,37.43
2023-06-17T10:47:24.420Z,36.85
2023-06-17T10:49:55.968Z,38.30
2023-06-17T10:52:24.380Z,38.20
2023-06-17T10:54:55.365Z,36.32
2023-06-17T10:57:38.256Z,35.90
2023-06-17T11:00:11.386Z,35.61
2023-06-17T11:02:40.900Z,34.99
2023-06-17T11:05:11.136Z,34.81
2023-06-17T11:07:39.554Z,35.55
2023-06-17T11:10:09.495Z,34.30
2023-06-17T11:12:40.291Z,35.56
2023-06-17T11:15:11.167Z,36.83
2023-06-17T11:17:39.928Z,38.45
2023-06-17T11:20:09.958Z,35.91
2023-06-17T11:22:42.120Z,36.01
2023-06-17T11:25:12.827Z,36.01
2023-06-17T11:27:42.635Z,36.80
2023-06-17T11:30:15.373Z,35.40
2023-06-17T11:32:44.111Z,36.10
2023-06-17T11:35:12.826Z,35.16
2023-06-17T11:37:41.480Z,35.16
2023-06-17T11:40:13.968Z,35.29
2023-06-17T11:42:42.836Z,35.28
2023-06-17T11:45:13.414Z,34.48
2023-06-17T11:47:41.859Z,35.07
2023-06-17T11:50:11.772Z,34.93
2023-06-17T11:52:40.140Z,34.42
2023-06-17T11:55:16.827Z,35.54
2023-06-17T11:57:45.813Z,35.89
2023-06-17T12:00:17.081Z,34.47
2023-06-17T12:02:45.659Z,33.39
2023-06-17T12:05:14.226Z,33.35
2023-06-17T12:07:42.634Z,33.62
2023-06-17T12:10:13.861Z,33.77
2023-06-17T12:12:42.637Z,34.06
2023-06-17T12:15:21.244Z,35.27
2023-06-17T12:18:11.566Z,33.52
2023-06-17T12:20:50.133Z,34.42
2023-06-17T12:23:18.567Z,34.93
2023-06-17T12:25:47.953Z,34.32
2023-06-17T12:28:17.949Z,33.92
2023-06-17T12:30:46.337Z,32.80
2023-06-17T12:33:16.011Z,34.10
2023-06-17T12:35:44.813Z,32.77
2023-06-17T12:38:13.112Z,32.84
2023-06-17T12:40:41.793Z,33.65
2023-06-17T12:43:10.601Z,33.32
2023-06-17T12:45:42.003Z,33.49
2023-06-17T12:48:12.373Z,33.14
2023-06-17T12:50:42.133Z,33.65
2023-06-17T12:53:10.477Z,33.25
2023-06-17T12:55:38.893Z,34.60
2023-06-17T12:58:08.094Z,32.92
2023-06-17T13:00:36.375Z,32.15
2023-06-17T13:03:04.956Z,31.44
2023-06-17T13:05:33.335Z,32.58
2023-06-17T13:08:03.407Z,31.65
2023-06-17T13:10:31.752Z,31.34
2023-06-17T13:13:00.065Z,31.03
2023-06-17T13:15:30.538Z,30.14
2023-06-17T13:17:58.851Z,29.79
2023-06-17T13:20:27.264Z,30.36
2023-06-17T13:22:56.639Z,29.40
2023-06-17T13:25:27.547Z,31.32
2023-06-17T13:27:56.204Z,32.04
2023-06-17T13:30:25.362Z,30.56
2023-06-17T13:32:53.836Z,31.60
2023-06-17T13:35:22.484Z,30.80
2023-06-17T13:37:51.452Z,31.13
2023-06-17T13:40:20.122Z,31.09
2023-06-17T13:42:50.052Z,30.96
2023-06-17T13:45:19.626Z,31.84
2023-06-17T13:47:49.499Z,30.89
2023-06-17T13:50:17.931Z,30.15
2023-06-17T13:52:46.337Z,30.62
2023-06-17T13:55:14.711Z,29.92
2023-06-17T13:57:43.115Z,30.48
2023-06-17T14:00:14.065Z,30.27
2023-06-17T14:02:43.119Z,30.30
2023-06-17T14:05:11.533Z,30.06
2023-06-17T14:07:39.852Z,32.83
2023-06-17T14:10:09.469Z,31.17
2023-06-17T14:12:38.161Z,30.60
2023-06-17T14:15:09.814Z,30.25
2023-06-17T14:17:39.641Z,29.87
2023-06-17T14:20:09.329Z,30.00
2023-06-17T14:22:38.267Z,29.95
2023-06-17T14:25:08.216Z,30.22
2023-06-17T14:27:40.513Z,30.28
2023-06-17T14:30:12.139Z,30.10
2023-06-17T14:32:44.098Z,30.07
2023-06-17T14:35:15.734Z,30.40
2023-06-17T14:37:46.153Z,30.84
2023-06-17T14:40:18.258Z,30.63
2023-06-17T14:42:47.235Z,30.52
2023-06-17T14:45:17.550Z,30.07
2023-06-17T14:47:47.373Z,30.05
2023-06-17T14:50:15.957Z,31.05
2023-06-17T14:52:48.915Z,31.46
2023-06-17T14:55:17.448Z,31.07
2023-06-17T14:57:46.153Z,30.94
2023-06-17T15:00:15.574Z,31.67
2023-06-17T15:02:55.552Z,31.56
2023-06-17T15:05:27.045Z,31.52
2023-06-17T15:07:55.625Z,31.40
2023-06-17T15:10:24.533Z,30.23
2023-06-17T15:12:53.100Z,30.08
2023-06-17T15:15:21.941Z,32.12
2023-06-17T15:17:52.270Z,31.01
2023-06-17T15:20:21.203Z,31.08
2023-06-17T15:22:49.926Z,32.99
2023-06-17T15:25:18.678Z,34.47
2023-06-17T15:27:47.508Z,34.39
2023-06-17T15:30:15.995Z,35.89
2023-06-17T15:32:44.335Z,33.40
2023-06-17T15:35:14.137Z,32.94
2023-06-17T15:37:42.426Z,32.66
2023-06-17T15:40:12.067Z,33.16
2023-06-17T15:42:41.685Z,33.26
2023-06-17T15:45:11.459Z,33.31
2023-06-17T15:47:40.007Z,32.37
2023-06-17T15:50:09.436Z,33.04
2023-06-17T15:52:39.376Z,32.26
2023-06-17T15:55:08.557Z,33.43
2023-06-17T15:57:36.929Z,33.24
2023-06-17T16:00:06.374Z,34.10
2023-06-17T16:02:40.728Z,33.14
2023-06-17T16:05:09.883Z,34.41
2023-06-17T16:07:39.765Z,32.69
2023-06-17T16:10:10.630Z,31.71
2023-06-17T16:12:39.608Z,32.67
2023-06-17T16:15:09.419Z,32.19
2023-06-17T16:17:40.224Z,32.47
2023-06-17T16:20:10.716Z,31.75
2023-06-17T16:22:40.693Z,32.29
2023-06-17T16:25:09.894Z,32.79
2023-06-17T16:27:38.217Z,32.49
2023-06-17T16:30:08.280Z,33.00
2023-06-17T16:32:36.670Z,32.57
2023-06-17T16:35:05.592Z,32.42
2023-06-17T16:37:33.978Z,32.57
2023-06-17T16:40:03.930Z,32.33
2023-06-17T16:42:34.170Z,32.22
2023-06-17T16:45:02.555Z,32.52
2023-06-17T16:47:31.099Z,32.95
2023-06-17T16:49:59.840Z,32.82
2023-06-17T16:52:28.239Z,33.06
2023-06-17T16:54:56.694Z,32.51
2023-06-17T16:57:26.567Z,32.74
2023-06-17T16:59:55.005Z,32.74
2023-06-17T17:02:23.567Z,32.53
2023-06-17T17:04:51.962Z,33.22
2023-06-17T17:07:20.317Z,33.40
2023-06-17T17:09:48.686Z,33.18
2023-06-17T17:12:17.160Z,33.29
2023-06-17T17:14:47.029Z,33.23
2023-06-17T17:17:15.553Z,32.92
2023-06-17T17:19:44.503Z,32.74
2023-06-17T17:22:13.068Z,33.38
2023-06-17T17:24:43.957Z,33.04
2023-06-17T17:27:12.658Z,33.29
2023-06-17T17:29:41.485Z,33.14
2023-06-17T17:32:12.031Z,33.80
2023-06-17T17:34:40.879Z,33.52
2023-06-17T17:37:09.275Z,33.71
2023-06-17T17:39:37.648Z,34.02
2023-06-17T17:42:07.438Z,34.02
2023-06-17T17:44:35.826Z,34.59
2023-06-17T17:47:04.586Z,33.94
2023-06-17T17:49:34.255Z,34.09
2023-06-17T17:52:03.334Z,33.98
2023-06-17T17:54:31.705Z,33.95
2023-06-17T17:57:00.085Z,32.96
2023-06-17T17:59:28.743Z,33.81
2023-06-17T18:01:57.252Z,33.43
2023-06-17T18:04:25.586Z,33.42
2023-06-17T18:06:55.334Z,33.24
2023-06-17T18:09:23.828Z,33.02
2023-06-17T18:11:52.364Z,33.38
2023-06-17T18:14:20.668Z,32.97
2023-06-17T18:16:49.003Z,33.31
2023-06-17T18:19:17.938Z,32.69
2023-06-17T18:21:46.462Z,33.67
2023-06-17T18:24:16.509Z,33.66
2023-06-17T18:26:45.233Z,33.92
2023-06-17T18:29:13.655Z,33.38
2023-06-17T18:31:42.575Z,33.75
2023-06-17T18:34:10.972Z,33.81
2023-06-17T18:36:39.361Z,32.73
2023-06-17T18:39:07.715Z,32.75
2023-06-17T18:41:37.678Z,32.51
2023-06-17T18:44:06.344Z,32.92
2023-06-17T18:46:34.784Z,32.64
2023-06-17T18:49:03.547Z,33.00
2023-06-17T18:51:32.268Z,32.69
2023-06-17T18:54:00.690Z,32.92
2023-06-17T18:56:29.418Z,32.87
2023-06-17T18:59:00.643Z,32.82
2023-06-17T19:01:30.639Z,33.46
2023-06-17T19:04:00.646Z,33.25
2023-06-17T19:06:29.072Z,33.71
2023-06-17T19:08:57.453Z,33.57
2023-06-17T19:11:25.812Z,32.80
2023-06-17T19:13:54.185Z,33.05
2023-06-17T19:16:24.132Z,32.91
2023-06-17T19:18:52.506Z,32.84
2023-06-17T19:21:21.312Z,33.69
2023-06-17T19:23:49.661Z,33.77
2023-06-17T19:26:18.516Z,34.23
2023-06-17T19:28:46.962Z,33.90
2023-06-17T19:31:16.181Z,33.47
2023-06-17T19:33:46.061Z,33.87
2023-06-17T19:36:14.576Z,34.32
2023-06-17T19:38:42.948Z,33.97
2023-06-17T19:41:11.450Z,34.38
2023-06-17T19:43:39.932Z,34.40
2023-06-17T19:46:09.230Z,35.28
2023-06-17T19:48:37.682Z,34.98
2023-06-17T19:51:07.446Z,35.88
2023-06-17T19:53:35.840Z,37.17
2023-06-17T19:56:04.396Z,37.51
2023-06-17T19:58:32.769Z,38.97
2023-06-17T20:01:02.445Z,39.50
2023-06-17T20:03:30.980Z,40.21
2023-06-17T20:05:59.545Z,40.54
2023-06-17T20:08:29.445Z,41.16
2023-06-17T20:10:58.008Z,41.44
2023-06-17T20:13:28.445Z,42.77
2023-06-17T20:15:57.458Z,43.23
2023-06-17T20:18:25.902Z,44.26
2023-06-17T20:20:54.268Z,44.86
2023-06-17T20:23:23.198Z,45.42
2023-06-17T20:25:53.149Z,45.48
2023-06-17T20:28:21.469Z,45.80
2023-06-17T20:30:49.917Z,46.25
2023-06-17T20:33:18.319Z,46.34
2023-06-17T20:35:48.803Z,46.89
2023-06-17T20:38:17.061Z,46.88
2023-06-17T20:40:45.693Z,47.30
2023-06-17T20:43:16.689Z,47.48
2023-06-17T20:45:45.171Z,47.74
2023-06-17T20:48:15.050Z,48.53
2023-06-17T20:50:45.020Z,48.85
2023-06-17T20:53:13.379Z,49.23
2023-06-17T20:55:42.533Z,49.48
2023-06-17T20:58:11.023Z,49.43
2023-06-17T21:00:40.741Z,49.70
2023-06-17T21:03:09.201Z,49.92
2023-06-17T21:05:37.652Z,50.34
2023-06-17T21:08:07.437Z,50.71
2023-06-17T21:10:36.412Z,50.93
2023-06-17T21:13:04.841Z,50.92
2023-06-17T21:15:33.298Z,51.30
2023-06-17T21:18:03.198Z,52.12
2023-06-17T21:20:31.611Z,52.62
2023-06-17T21:23:00.784Z,52.99
2023-06-17T21:25:29.214Z,54.00
2023-06-17T21:27:57.580Z,54.53
2023-06-17T21:30:25.979Z,54.52
2023-06-17T21:32:54.442Z,54.70
2023-06-17T21:35:24.178Z,55.10
2023-06-17T21:37:52.516Z,55.40
2023-06-17T21:40:21.537Z,55.65
2023-06-17T21:42:50.085Z,55.72
2023-06-17T21:45:18.927Z,55.79
2023-06-17T21:47:47.316Z,55.50
2023-06-17T21:50:15.681Z,55.92
2023-06-17T21:52:45.624Z,55.97
2023-06-17T21:55:13.996Z,56.56
2023-06-17T21:57:43.801Z,56.78
2023-06-17T22:00:16.369Z,57.02
2023-06-17T22:02:44.813Z,57.07
2023-06-17T22:05:13.394Z,57.51
2023-06-17T22:07:41.775Z,57.71
2023-06-17T22:10:12.122Z,57.97
2023-06-17T22:12:40.453Z,57.75
2023-06-17T22:15:10.250Z,57.71
2023-06-17T22:17:38.711Z,57.84
2023-06-17T22:20:08.667Z,58.02
2023-06-17T22:22:36.948Z,57.93
2023-06-17T22:25:07.528Z,57.90
2023-06-17T22:27:37.597Z,58.39
2023-06-17T22:30:07.532Z,58.40
2023-06-17T22:32:35.970Z,59.20
2023-06-17T22:35:04.764Z,59.37
2023-06-17T22:37:33.167Z,59.80
2023-06-17T22:40:01.571Z,60.00
2023-06-17T22:42:29.954Z,60.88
2023-06-17T22:44:59.797Z,60.54
2023-06-17T22:47:28.388Z,61.07
2023-06-17T22:49:56.829Z,61.95
2023-06-17T22:52:25.522Z,62.49
2023-06-17T22:54:53.853Z,63.11
2023-06-17T22:57:22.156Z,63.75
2023-06-17T22:59:50.998Z,63.97
2023-06-17T23:02:20.870Z,64.26
2023-06-17T23:04:50.085Z,64.47
2023-06-17T23:07:18.469Z,64.91
2023-06-17T23:09:46.793Z,65.26
2023-06-17T23:12:15.232Z,66.04
2023-06-17T23:14:43.573Z,66.69
2023-06-17T23:17:11.890Z,66.96
2023-06-17T23:19:41.571Z,66.70
2023-06-17T23:22:11.184Z,66.76
2023-06-17T23:24:40.083Z,66.99
2023-06-17T23:27:09.006Z,66.74
2023-06-17T23:29:39.860Z,67.27
2023-06-17T23:32:09.890Z,67.35
2023-06-17T23:34:38.430Z,66.97
2023-06-17T23:37:11.623Z,66.85
2023-06-17T23:39:39.950Z,66.28
2023-06-17T23:42:09.725Z,66.02
2023-06-17T23:44:38.090Z,65.56
2023-06-17T23:47:08.443Z,65.50
2023-06-17T23:49:39.329Z,64.91
2023-06-17T23:52:11.086Z,65.04
2023-06-17T23:54:40.033Z,64.67
2023-06-17T23:57:08.845Z,64.62
2023-06-17T23:59:37.374Z,64.68
